Hlavní strana
METAR-TAF:

METAR-TAF

Letiště :

Lexington, Severní Karolína, Spojené státy americké

zeměpisná šířka: 35-46-52N, zeměpisná délka: 080-18-14W, výška: 223 m

Aktuální stav počasí

Zpráva byla vytvořena před 21 minutami, v 23:15 UTC
Severozápadní vítr 4 kt
Teplota 9°C
Vlhkost vzduchu 57%
Tlak 1003 hPa
Viditelnost: 16.1 km
Oblačno až skoro zataženo ve výšce 4800 ft
Oblačno až skoro zataženo ve výšce 5500 ft
Zataženo ve výšce 6500 ft

METAR: KEXX 302315Z AUTO 32004KT 10SM BKN048 BKN055 OVC065 09/01 A2963 RMK AO2 T00940012

Čas: 18:36 (23:36 UTC)


TAF: chybějící

Stav a předpovědi počasí z více než 4 000 letišť (zprávy METAR a TAF).

Červené a žluté tečky na mapě představují dostupné meteorologické stanice.

Když kurzor umístíte na tečku, zobrazí se název stanice.

Pak kliknutím zobrazíte stav a předpověď počasí.

Chcete-li změnit mapu, kliknutím na zelené tlačítko se znaménkem +mapu přiblížíte, kliknutím na zelené tlačítko se znaménkem – mapu oddálíte a kliknutím na zelené šipky přejdete na sousední mapy.


METAR-TAF: